Gibson City, Illinois
Current Conditions -  °F | °C
As of 5:30 AM on Friday 31 Oct 2014 (Local Time) from KTIP Reporting Station
Light Rain Light Rain  
Wind Chill: 41°   Ceiling: 3000
Heat Index: 46°   Visibility: 7mi
Dew Point: 42°   Wind: 9mph
Humidity: 88%   Direction: 320°NW
Pressure: 30.05"   Gusts: NA
Location:  40.47°N, 88.38°W
Report Text: KTIP 311030Z AUTO 32008KT 7SM -RA SCT020 BKN030 OVC047 08/06 A3005 RMK AO2 T00750056
Loading
Personal Weather Stations






























Interactive Weather Map
Tropical Storm Tracking
New forecast layout! Learn more

10-Day Weather Forecast

Advertisements
Track Severe Weather on mobile